Time;durP1;ratioP1;P1;durP2;ratioP2;P2;SDS_P1;SDS_P2;PMS_P1;PMS_P2;Temp;Humidity;BMP_temperature;BMP_pressure;BME280_temperature;BME280_humidity;BME280_pressure;Samples;Min_cycle;Max_cycle;Signal;HPM_P1;HPM_P2
2023/03/12 00:00:11;;;;;;;11.83;6.60;;;0.80;71.60;;;;;;903725;154;27334;-79
2023/03/12 00:02:37;;;;;;;6.47;4.90;;;0.80;71.60;;;;;;919215;152;27364;-79
2023/03/12 00:05:04;;;;;;;7.60;4.87;;;0.80;71.60;;;;;;904252;154;27435;-79
2023/03/12 00:07:31;;;;;;;5.50;4.80;;;0.70;71.60;;;;;;904096;155;27358;-79
2023/03/12 00:09:57;;;;;;;7.03;4.17;;;0.70;71.70;;;;;;917801;152;27366;-79
2023/03/12 00:12:24;;;;;;;7.23;5.23;;;0.70;71.70;;;;;;923920;151;27356;-79
2023/03/12 00:14:50;;;;;;;5.13;4.30;;;0.70;72.50;;;;;;903905;154;27437;-79
2023/03/12 00:17:17;;;;;;;6.37;4.77;;;0.70;72.10;;;;;;903032;155;27433;-79
2023/03/12 00:19:44;;;;;;;4.90;4.07;;;0.70;71.80;;;;;;903742;154;27321;-79
2023/03/12 00:22:10;;;;;;;6.20;4.57;;;0.70;71.80;;;;;;903141;154;27390;-79
2023/03/12 00:24:37;;;;;;;5.17;3.77;;;0.70;71.80;;;;;;938801;148;27333;-79
2023/03/12 00:27:03;;;;;;;5.67;4.40;;;0.70;71.90;;;;;;940924;148;27374;-79
2023/03/12 00:29:30;;;;;;;5.07;4.50;;;0.70;72.00;;;;;;925272;151;27948;-79
2023/03/12 00:31:56;;;;;;;4.30;3.90;;;0.60;72.10;;;;;;922531;151;27371;-79
2023/03/12 00:34:23;;;;;;;6.27;4.00;;;0.60;72.10;;;;;;939637;148;27409;-79
2023/03/12 00:36:50;;;;;;;6.87;4.50;;;0.70;72.30;;;;;;924839;151;27450;-79
2023/03/12 00:39:16;;;;;;;5.80;4.17;;;0.60;72.30;;;;;;908116;153;27908;-79
2023/03/12 00:41:43;;;;;;;5.50;4.30;;;0.70;72.50;;;;;;926841;151;27354;-79
2023/03/12 00:44:09;;;;;;;5.97;4.47;;;0.70;72.70;;;;;;925800;151;27347;-79
2023/03/12 00:46:36;;;;;;;4.53;4.13;;;0.70;72.70;;;;;;909530;153;27359;-79
2023/03/12 00:49:02;;;;;;;6.20;4.10;;;0.70;72.80;;;;;;910477;153;27550;-79
2023/03/12 00:51:29;;;;;;;8.30;4.40;;;0.80;72.90;;;;;;909782;153;27389;-79
2023/03/12 00:53:56;;;;;;;4.73;4.30;;;0.80;72.90;;;;;;910491;153;27409;-79
2023/03/12 00:56:22;;;;;;;5.33;3.90;;;0.90;73.10;;;;;;925978;151;27768;-79
2023/03/12 00:58:49;;;;;;;6.33;3.73;;;0.90;73.10;;;;;;929413;150;27517;-79
2023/03/12 01:01:15;;;;;;;4.40;4.00;;;1.00;73.10;;;;;;917883;153;27418;-79
2023/03/12 01:03:42;;;;;;;5.30;4.10;;;1.10;73.10;;;;;;909889;153;27398;-79
2023/03/12 01:06:09;;;;;;;5.20;4.17;;;1.10;73.10;;;;;;909379;153;27394;-79
2023/03/12 01:08:35;;;;;;;4.40;4.00;;;1.20;73.10;;;;;;926884;151;27451;-79
2023/03/12 01:11:02;;;;;;;4.83;4.23;;;1.20;73.10;;;;;;925973;151;27383;-79
2023/03/12 01:13:28;;;;;;;5.27;4.27;;;1.30;73.10;;;;;;910703;153;27401;-79
2023/03/12 01:15:55;;;;;;;4.13;3.73;;;1.40;73.10;;;;;;908383;153;27408;-79
2023/03/12 01:18:21;;;;;;;5.97;3.90;;;1.40;73.10;;;;;;907195;154;27496;-79
2023/03/12 01:20:48;;;;;;;4.23;3.83;;;1.50;73.00;;;;;;911294;153;27519;-79
2023/03/12 01:23:15;;;;;;;4.47;3.20;;;1.60;73.00;;;;;;918176;153;27337;-79
2023/03/12 01:25:41;;;;;;;4.00;3.60;;;1.60;72.90;;;;;;926724;151;27473;-79
2023/03/12 01:28:08;;;;;;;4.80;3.93;;;1.70;72.90;;;;;;910889;153;27493;-79
2023/03/12 01:30:34;;;;;;;4.83;4.33;;;1.70;72.80;;;;;;927940;151;27375;-79
2023/03/12 01:33:01;;;;;;;4.73;3.80;;;1.80;72.80;;;;;;925984;151;28102;-79
2023/03/12 01:35:28;;;;;;;6.10;4.17;;;1.90;72.80;;;;;;926329;153;27477;-79
2023/03/12 01:37:54;;;;;;;6.00;3.63;;;1.90;72.80;;;;;;924704;153;27364;-79
2023/03/12 01:40:24;;;;;;;4.00;3.63;;;1.90;72.70;;;;;;923574;151;27410;-79
2023/03/12 01:42:56;;;;;;;4.60;3.67;;;2.00;72.70;;;;;;938344;148;27373;-79
2023/03/12 01:46:00;;;;;;;6.03;4.13;;;2.00;72.70;;;;;;904397;154;27497;-79
2023/03/12 01:48:29;;;;;;;4.47;3.33;;;2.10;72.70;;;;;;903286;155;27435;-79
2023/03/12 01:50:55;;;;;;;4.53;3.67;;;2.10;72.50;;;;;;918942;152;27457;-79
2023/03/12 01:53:22;;;;;;;4.63;3.70;;;2.10;72.50;;;;;;904531;153;27393;-79
2023/03/12 01:55:48;;;;;;;4.30;3.40;;;2.10;72.40;;;;;;922491;151;27437;-79
2023/03/12 01:58:15;;;;;;;5.40;3.67;;;2.20;72.50;;;;;;940802;148;27844;-79
2023/03/12 02:00:42;;;;;;;3.97;3.63;;;2.20;72.50;;;;;;924038;151;27441;-79
2023/03/12 02:03:08;;;;;;;5.10;3.97;;;2.30;72.50;;;;;;904396;154;27465;-79
2023/03/12 02:05:53;;;;;;;4.83;3.70;;;2.30;72.40;;;;;;921019;150;27457;-79
2023/03/12 02:08:19;;;;;;;5.60;3.40;;;2.30;72.40;;;;;;901540;155;27985;-79
2023/03/12 02:10:46;;;;;;;4.60;4.13;;;2.30;72.20;;;;;;919804;152;27398;-79
2023/03/12 02:13:12;;;;;;;6.50;5.27;;;2.40;72.20;;;;;;904036;154;27466;-79
2023/03/12 02:15:39;;;;;;;5.47;4.37;;;2.40;72.20;;;;;;902505;155;27422;-79
2023/03/12 02:18:06;;;;;;;5.67;4.23;;;2.40;72.10;;;;;;903511;155;27421;-79
2023/03/12 02:20:41;;;;;;;5.47;4.80;;;2.40;72.10;;;;;;906236;154;27302;-79
2023/03/12 02:23:08;;;;;;;5.93;4.30;;;2.40;72.80;;;;;;902307;155;27523;-79
2023/03/12 02:25:40;;;;;;;5.63;4.10;;;2.40;72.10;;;;;;902864;155;27738;-79
2023/03/12 02:28:07;;;;;;;5.13;4.00;;;2.40;72.10;;;;;;904699;155;27524;-79
2023/03/12 02:30:34;;;;;;;5.23;3.90;;;2.40;72.10;;;;;;918817;152;27383;-79
2023/03/12 02:33:00;;;;;;;4.77;3.57;;;2.40;72.00;;;;;;905009;154;27372;-79
2023/03/12 02:35:27;;;;;;;4.23;3.83;;;2.40;72.00;;;;;;903075;153;27398;-79
2023/03/12 02:37:53;;;;;;;4.33;3.40;;;2.40;71.60;;;;;;902788;155;27931;-79
2023/03/12 02:40:26;;;;;;;3.90;3.50;;;2.40;72.00;;;;;;914539;153;27437;-79
2023/03/12 02:42:52;;;;;;;3.60;3.30;;;2.50;72.10;;;;;;918253;153;27370;-79
2023/03/12 02:45:19;;;;;;;4.77;3.50;;;2.40;72.00;;;;;;909625;153;27377;-79
2023/03/12 02:47:45;;;;;;;4.40;3.90;;;2.40;72.00;;;;;;925214;151;27457;-79
2023/03/12 02:50:12;;;;;;;4.87;3.80;;;2.50;72.20;;;;;;929363;150;27422;-79
2023/03/12 02:52:39;;;;;;;4.40;4.00;;;2.50;72.10;;;;;;911970;153;27342;-79
2023/03/12 02:55:05;;;;;;;4.53;4.03;;;2.50;72.20;;;;;;926288;151;27347;-79
2023/03/12 02:57:32;;;;;;;7.77;4.30;;;2.50;72.20;;;;;;908750;153;27402;-79
2023/03/12 02:59:58;;;;;;;6.40;4.60;;;2.50;72.20;;;;;;918670;153;27419;-79
2023/03/12 03:02:25;;;;;;;5.23;4.03;;;2.50;72.20;;;;;;910737;153;27524;-79
2023/03/12 03:04:52;;;;;;;4.53;3.80;;;2.50;72.20;;;;;;926735;151;27400;-79
2023/03/12 03:07:18;;;;;;;5.77;4.27;;;2.50;72.20;;;;;;908242;154;27469;-79
2023/03/12 03:09:45;;;;;;;7.00;3.93;;;2.50;72.10;;;;;;926243;151;27463;-79
2023/03/12 03:12:11;;;;;;;6.00;4.10;;;2.50;72.10;;;;;;927338;151;27497;-79
2023/03/12 03:14:38;;;;;;;4.17;3.70;;;2.60;72.20;;;;;;927222;150;27370;-79
2023/03/12 03:17:04;;;;;;;5.90;4.10;;;2.50;72.10;;;;;;926535;151;27456;-79
2023/03/12 03:19:31;;;;;;;4.27;3.37;;;2.50;72.20;;;;;;925762;151;27323;-78
2023/03/12 03:21:58;;;;;;;4.97;3.50;;;2.60;72.20;;;;;;926031;151;27904;-79
2023/03/12 03:24:24;;;;;;;3.70;3.20;;;2.60;72.20;;;;;;907873;154;27484;-79
2023/03/12 03:26:51;;;;;;;3.17;2.87;;;2.60;72.20;;;;;;913432;153;27404;-79
2023/03/12 03:29:17;;;;;;;4.23;3.27;;;2.60;72.20;;;;;;911087;153;27432;-79
2023/03/12 03:31:44;;;;;;;3.60;3.30;;;2.60;72.20;;;;;;927533;151;27394;-79
2023/03/12 03:34:11;;;;;;;3.57;3.03;;;2.60;72.20;;;;;;911015;153;28204;-79
2023/03/12 03:36:37;;;;;;;4.87;3.07;;;2.60;72.20;;;;;;909964;154;27477;-79
2023/03/12 03:39:04;;;;;;;4.80;3.43;;;2.60;72.20;;;;;;926349;151;27345;-79
2023/03/12 03:41:31;;;;;;;3.63;3.30;;;2.60;72.20;;;;;;923258;151;27391;-79
2023/03/12 03:43:57;;;;;;;4.07;3.13;;;2.60;72.20;;;;;;923856;151;27481;-79
2023/03/12 03:46:23;;;;;;;3.87;3.23;;;2.60;72.30;;;;;;923561;151;27441;-79
2023/03/12 03:48:50;;;;;;;4.00;3.20;;;2.60;72.30;;;;;;923432;151;27453;-79
2023/03/12 03:51:17;;;;;;;4.00;3.10;;;2.60;72.40;;;;;;925034;151;27373;-79
2023/03/12 03:53:43;;;;;;;4.17;3.43;;;2.60;72.50;;;;;;924852;151;27482;-75
2023/03/12 03:56:10;;;;;;;3.50;3.20;;;2.60;72.70;;;;;;924855;151;27350;-75
2023/03/12 03:58:36;;;;;;;4.97;3.63;;;2.70;72.70;;;;;;923912;151;27373;-75
2023/03/12 04:01:03;;;;;;;4.27;3.23;;;2.70;72.70;;;;;;923571;151;27326;-75
2023/03/12 04:03:30;;;;;;;4.90;3.17;;;2.80;72.70;;;;;;924417;151;27816;-75
2023/03/12 04:05:56;;;;;;;4.13;3.27;;;2.80;72.70;;;;;;924347;151;27479;-75
2023/03/12 04:08:23;;;;;;;3.20;2.90;;;2.90;72.60;;;;;;922435;151;27339;-75
2023/03/12 04:10:49;;;;;;;3.50;2.97;;;2.90;72.50;;;;;;923696;151;27508;-75
2023/03/12 04:13:16;;;;;;;6.00;3.57;;;2.90;72.50;;;;;;925184;151;27424;-75
2023/03/12 04:15:48;;;;;;;4.03;2.77;;;3.00;72.50;;;;;;924498;151;27509;-75
2023/03/12 04:18:15;;;;;;;3.37;2.97;;;3.00;72.50;;;;;;923222;151;27324;-75
2023/03/12 04:20:41;;;;;;;3.30;3.00;;;3.00;72.50;;;;;;924863;151;27422;-75
2023/03/12 04:23:08;;;;;;;4.27;2.83;;;3.00;72.50;;;;;;922413;151;27424;-75
2023/03/12 04:25:34;;;;;;;4.13;3.00;;;3.10;72.50;;;;;;922953;151;27415;-75
2023/03/12 04:28:01;;;;;;;3.30;2.87;;;3.10;72.50;;;;;;923331;151;27391;-75
2023/03/12 04:30:28;;;;;;;2.97;2.77;;;3.10;72.40;;;;;;924685;151;27412;-75
2023/03/12 04:32:54;;;;;;;5.17;3.07;;;3.10;72.40;;;;;;921744;151;27371;-74
2023/03/12 04:35:21;;;;;;;3.07;2.80;;;3.20;72.30;;;;;;923623;151;27494;-75
2023/03/12 04:37:47;;;;;;;3.10;2.80;;;3.20;72.30;;;;;;921523;151;27530;-75
2023/03/12 04:40:14;;;;;;;3.27;2.60;;;3.30;72.30;;;;;;923915;151;27372;-75
2023/03/12 04:42:40;;;;;;;2.60;2.40;;;3.30;72.20;;;;;;922324;151;27504;-75
2023/03/12 04:45:07;;;;;;;3.93;3.00;;;3.30;72.10;;;;;;923501;151;27727;-75
2023/03/12 04:47:34;;;;;;;2.67;2.47;;;3.30;72.10;;;;;;925242;151;27387;-75
2023/03/12 04:50:00;;;;;;;3.10;2.80;;;3.30;72.10;;;;;;923036;151;27361;-75
2023/03/12 04:52:27;;;;;;;3.90;2.60;;;3.30;72.10;;;;;;924243;151;27355;-75
2023/03/12 04:54:54;;;;;;;5.10;3.13;;;3.40;72.10;;;;;;923292;151;27307;-75
2023/03/12 04:57:20;;;;;;;4.63;3.17;;;3.40;72.10;;;;;;922617;150;27510;-75
2023/03/12 04:59:47;;;;;;;2.77;2.57;;;3.40;72.10;;;;;;920091;151;27898;-75
2023/03/12 05:02:13;;;;;;;2.87;2.60;;;3.40;72.10;;;;;;923919;151;27350;-75
2023/03/12 05:04:40;;;;;;;3.00;2.70;;;3.50;72.10;;;;;;924127;151;27472;-75
2023/03/12 05:07:06;;;;;;;2.97;2.67;;;3.50;72.10;;;;;;922675;151;27419;-75
2023/03/12 05:09:33;;;;;;;3.03;2.73;;;3.60;72.10;;;;;;921978;151;27529;-75
2023/03/12 05:12:00;;;;;;;7.97;3.40;;;3.60;72.00;;;;;;922914;151;27283;-75
2023/03/12 05:14:26;;;;;;;2.87;2.37;;;3.60;72.00;;;;;;923875;151;27304;-75
2023/03/12 05:16:53;;;;;;;3.53;2.77;;;3.70;71.90;;;;;;923827;151;27431;-75
2023/03/12 05:19:19;;;;;;;2.67;2.17;;;3.70;71.80;;;;;;923511;151;27394;-75
2023/03/12 05:21:46;;;;;;;3.93;2.90;;;3.70;71.80;;;;;;920858;151;27508;-75
2023/03/12 05:24:13;;;;;;;4.10;2.77;;;3.80;71.70;;;;;;924899;151;27337;-75
2023/03/12 05:26:39;;;;;;;3.83;2.77;;;3.80;71.70;;;;;;923141;151;27449;-75
2023/03/12 05:29:06;;;;;;;3.90;2.70;;;3.80;71.70;;;;;;922218;151;27404;-75
2023/03/12 05:31:34;;;;;;;3.40;3.10;;;3.80;71.70;;;;;;923274;151;27493;-75
2023/03/12 05:33:59;;;;;;;3.03;2.60;;;3.90;71.70;;;;;;923739;151;27343;-75
2023/03/12 05:36:26;;;;;;;4.00;2.90;;;3.90;71.70;;;;;;920300;151;27340;-75
2023/03/12 05:38:52;;;;;;;3.33;2.77;;;4.00;72.50;;;;;;923800;151;27355;-75
2023/03/12 05:41:19;;;;;;;3.10;2.90;;;4.00;71.50;;;;;;919373;152;27358;-76
2023/03/12 05:43:45;;;;;;;3.43;2.60;;;4.00;71.40;;;;;;911518;153;27440;-75
2023/03/12 05:46:12;;;;;;;2.57;2.37;;;4.00;71.40;;;;;;923494;151;27395;-75
2023/03/12 05:48:38;;;;;;;2.93;2.57;;;4.10;71.30;;;;;;909879;153;27396;-75
2023/03/12 05:51:05;;;;;;;3.80;2.47;;;4.10;71.30;;;;;;909209;153;27426;-75
2023/03/12 05:53:32;;;;;;;2.87;2.50;;;4.10;71.20;;;;;;910847;153;27407;-75
2023/03/12 05:56:04;;;;;;;2.77;2.43;;;4.10;71.20;;;;;;911853;153;27456;-75
2023/03/12 05:58:31;;;;;;;4.67;2.33;;;4.10;71.20;;;;;;918384;153;27462;-75
2023/03/12 06:00:57;;;;;;;6.27;2.20;;;4.10;71.10;;;;;;908872;153;27443;-75
2023/03/12 06:03:24;;;;;;;3.73;2.47;;;4.10;71.20;;;;;;926547;151;27415;-75
2023/03/12 06:05:53;;;;;;;3.87;2.43;;;4.10;71.20;;;;;;914583;153;27717;-75
2023/03/12 06:08:17;;;;;;;4.23;2.10;;;4.10;71.20;;;;;;911402;153;27441;-75
2023/03/12 06:10:44;;;;;;;3.90;2.30;;;4.10;71.20;;;;;;918687;153;27484;-75
2023/03/12 06:13:10;;;;;;;4.17;2.20;;;4.10;71.30;;;;;;910977;153;27539;-75
2023/03/12 06:15:37;;;;;;;2.43;2.23;;;4.20;71.40;;;;;;927163;151;27412;-75
2023/03/12 06:18:03;;;;;;;3.00;2.10;;;4.20;71.30;;;;;;926672;151;27385;-75
2023/03/12 06:20:30;;;;;;;2.20;2.00;;;4.20;71.40;;;;;;928084;151;27484;-75
2023/03/12 06:22:57;;;;;;;3.67;2.60;;;4.30;71.40;;;;;;929027;150;27382;-75
2023/03/12 06:25:23;;;;;;;4.23;2.43;;;4.30;71.40;;;;;;926826;151;27505;-75
2023/03/12 06:27:50;;;;;;;2.37;2.00;;;4.40;71.40;;;;;;925096;151;27343;-75
2023/03/12 06:30:16;;;;;;;3.93;2.23;;;4.40;71.30;;;;;;918105;153;27492;-75
2023/03/12 06:32:43;;;;;;;2.50;2.30;;;4.50;71.30;;;;;;910776;153;27489;-75
2023/03/12 06:35:10;;;;;;;2.00;1.90;;;4.50;71.20;;;;;;911453;153;27994;-75
2023/03/12 06:37:36;;;;;;;3.43;2.20;;;4.60;71.20;;;;;;924283;151;27859;-75
2023/03/12 06:40:03;;;;;;;4.20;2.13;;;4.70;71.10;;;;;;911463;153;27381;-75
2023/03/12 06:42:29;;;;;;;2.50;1.90;;;4.70;71.00;;;;;;925488;151;27366;-75
2023/03/12 06:44:56;;;;;;;1.70;1.60;;;4.70;70.90;;;;;;928957;150;27479;-75
2023/03/12 06:47:22;;;;;;;2.57;2.10;;;4.80;70.90;;;;;;911530;153;27729;-75
2023/03/12 06:49:49;;;;;;;2.97;2.27;;;4.80;70.80;;;;;;909045;153;27479;-75
2023/03/12 06:52:16;;;;;;;4.00;2.13;;;4.80;70.70;;;;;;927232;151;27464;-74
2023/03/12 06:54:42;;;;;;;2.20;2.00;;;4.90;70.70;;;;;;910947;153;27350;-75
2023/03/12 06:57:09;;;;;;;2.37;1.90;;;4.90;70.60;;;;;;910830;153;27431;-75
2023/03/12 06:59:35;;;;;;;2.40;1.90;;;4.90;70.50;;;;;;926604;151;27487;-75
2023/03/12 07:02:02;;;;;;;2.10;2.00;;;4.90;70.50;;;;;;911199;153;27374;-75
2023/03/12 07:04:29;;;;;;;3.47;2.30;;;5.00;70.50;;;;;;925207;151;27424;-75
2023/03/12 07:06:55;;;;;;;3.00;1.97;;;5.00;70.50;;;;;;911006;153;27433;-75
2023/03/12 07:09:22;;;;;;;2.70;2.30;;;5.00;70.40;;;;;;910557;153;27559;-75
2023/03/12 07:11:48;;;;;;;2.20;1.83;;;5.00;70.40;;;;;;910699;153;27372;-74
2023/03/12 07:14:15;;;;;;;4.30;2.17;;;5.00;70.30;;;;;;926741;150;27348;-74
2023/03/12 07:16:42;;;;;;;3.33;2.40;;;5.00;70.30;;;;;;925318;151;27414;-74
2023/03/12 07:19:08;;;;;;;4.33;2.67;;;5.10;70.30;;;;;;927555;151;27754;-74
2023/03/12 07:21:35;;;;;;;4.43;2.17;;;5.10;70.30;;;;;;926492;151;27936;-74
2023/03/12 07:24:05;;;;;;;7.63;2.83;;;5.10;70.40;;;;;;928011;151;27341;-74
2023/03/12 07:26:28;;;;;;;2.50;2.23;;;5.10;70.40;;;;;;926713;151;27431;-74
2023/03/12 07:28:54;;;;;;;3.57;2.63;;;5.20;70.60;;;;;;928410;151;27442;-74
2023/03/12 07:31:21;;;;;;;2.87;2.37;;;5.20;70.60;;;;;;925900;151;27408;-74
2023/03/12 07:33:48;;;;;;;4.67;2.57;;;5.30;70.70;;;;;;927339;151;27671;-75
2023/03/12 07:36:14;;;;;;;4.23;2.73;;;5.30;70.60;;;;;;926926;151;27424;-74
2023/03/12 07:38:41;;;;;;;3.77;2.90;;;5.30;70.50;;;;;;926881;151;27513;-75
2023/03/12 07:41:07;;;;;;;2.70;2.50;;;5.40;70.60;;;;;;927191;151;27459;-75
2023/03/12 07:43:34;;;;;;;3.03;2.73;;;5.40;70.60;;;;;;927943;151;27495;-74
2023/03/12 07:46:00;;;;;;;2.83;2.50;;;5.40;70.70;;;;;;925900;151;27399;-75
2023/03/12 07:48:27;;;;;;;3.17;2.63;;;5.50;70.90;;;;;;926982;151;27398;-75
2023/03/12 07:50:54;;;;;;;3.03;2.73;;;5.60;70.80;;;;;;926268;151;27889;-74
2023/03/12 07:53:20;;;;;;;2.77;2.50;;;5.60;70.70;;;;;;927376;151;27362;-75
2023/03/12 07:55:47;;;;;;;2.97;2.57;;;5.70;70.70;;;;;;925218;151;27363;-75
2023/03/12 07:58:14;;;;;;;2.37;2.17;;;5.80;70.70;;;;;;926547;151;27384;-74
2023/03/12 08:00:40;;;;;;;3.07;2.57;;;5.80;70.70;;;;;;925317;151;27382;-74
2023/03/12 08:03:07;;;;;;;2.83;2.30;;;5.90;70.60;;;;;;926913;151;28061;-75
2023/03/12 08:05:33;;;;;;;3.17;2.53;;;6.00;70.60;;;;;;928640;151;27416;-75
2023/03/12 08:08:00;;;;;;;3.33;2.40;;;6.10;70.50;;;;;;927632;151;27324;-75
2023/03/12 08:10:26;;;;;;;2.83;2.37;;;6.10;70.50;;;;;;926492;151;27374;-75
2023/03/12 08:12:53;;;;;;;2.83;2.53;;;6.20;70.60;;;;;;926776;151;27491;-75
2023/03/12 08:15:19;;;;;;;4.17;2.30;;;6.30;70.60;;;;;;925260;151;27363;-75
2023/03/12 08:17:46;;;;;;;4.80;2.60;;;6.30;70.60;;;;;;927857;151;27359;-75
2023/03/12 08:20:13;;;;;;;2.97;2.43;;;6.40;70.60;;;;;;925138;151;27376;-75
2023/03/12 08:22:39;;;;;;;3.73;2.13;;;6.50;70.50;;;;;;926122;151;27415;-75
2023/03/12 08:25:06;;;;;;;2.20;2.00;;;6.60;70.50;;;;;;926779;151;27433;-75
2023/03/12 08:27:32;;;;;;;2.63;2.33;;;6.60;70.40;;;;;;924858;151;27452;-75
2023/03/12 08:29:59;;;;;;;2.43;2.20;;;6.70;70.50;;;;;;926488;151;27733;-75
2023/03/12 08:32:26;;;;;;;2.50;2.30;;;6.70;70.30;;;;;;927282;151;27455;-74
2023/03/12 08:34:52;;;;;;;2.17;1.97;;;6.80;70.30;;;;;;927063;151;27504;-75
2023/03/12 08:37:19;;;;;;;3.00;2.10;;;6.80;70.10;;;;;;925676;151;27324;-75
2023/03/12 08:39:45;;;;;;;3.17;2.20;;;6.90;70.00;;;;;;926247;151;27352;-75
2023/03/12 08:42:12;;;;;;;4.83;2.37;;;6.90;69.80;;;;;;925764;151;27396;-75
2023/03/12 08:44:39;;;;;;;4.93;2.20;;;6.90;69.80;;;;;;925785;151;27425;-75
2023/03/12 08:47:05;;;;;;;3.17;2.30;;;7.00;69.70;;;;;;922324;151;27384;-74
2023/03/12 08:49:32;;;;;;;2.87;2.23;;;7.00;69.60;;;;;;923617;151;27361;-75
2023/03/12 08:51:58;;;;;;;3.97;2.20;;;7.00;69.80;;;;;;925125;151;27390;-75
2023/03/12 08:54:25;;;;;;;3.10;2.57;;;7.00;70.00;;;;;;924295;151;27902;-75
2023/03/12 08:56:51;;;;;;;4.40;2.63;;;7.00;70.10;;;;;;923525;151;27322;-75
2023/03/12 08:59:19;;;;;;;2.60;2.40;;;7.00;70.00;;;;;;921857;151;27475;-75
2023/03/12 09:01:45;;;;;;;7.93;2.33;;;7.00;70.00;;;;;;922631;151;27376;-75
2023/03/12 09:04:11;;;;;;;3.03;2.27;;;7.00;70.00;;;;;;923605;151;27389;-75
2023/03/12 09:06:38;;;;;;;3.13;2.20;;;7.10;70.00;;;;;;921453;151;27484;-75
2023/03/12 09:09:05;;;;;;;2.87;2.00;;;7.00;69.80;;;;;;923408;151;27400;-75
2023/03/12 09:11:31;;;;;;;4.43;2.23;;;7.10;70.00;;;;;;921967;151;28987;-75
2023/03/12 09:13:58;;;;;;;2.50;2.10;;;7.00;70.10;;;;;;923207;151;27340;-75
2023/03/12 09:16:24;;;;;;;2.40;2.20;;;7.00;70.30;;;;;;924133;151;27467;-75
2023/03/12 09:18:51;;;;;;;2.70;1.97;;;7.10;70.50;;;;;;923808;151;27345;-75
2023/03/12 09:21:17;;;;;;;4.70;2.30;;;7.10;70.60;;;;;;924241;151;27284;-75
2023/03/12 09:23:44;;;;;;;3.17;2.10;;;7.10;70.60;;;;;;923631;151;27484;-75
2023/03/12 09:26:10;;;;;;;4.20;2.63;;;7.10;71.50;;;;;;923975;151;27493;-75
2023/03/12 09:28:37;;;;;;;2.23;2.03;;;7.10;70.90;;;;;;923950;151;27389;-75
2023/03/12 09:31:04;;;;;;;3.67;2.27;;;7.10;71.30;;;;;;925102;151;27440;-75
2023/03/12 09:33:30;;;;;;;3.27;2.40;;;7.10;71.50;;;;;;924252;151;27296;-75
2023/03/12 09:35:57;;;;;;;4.43;2.33;;;7.00;71.50;;;;;;921677;151;27453;-75
2023/03/12 09:38:23;;;;;;;3.33;2.83;;;7.10;71.70;;;;;;924040;151;27378;-75
2023/03/12 09:40:50;;;;;;;3.80;2.50;;;7.10;71.90;;;;;;923108;151;27856;-75
2023/03/12 09:43:25;;;;;;;6.83;4.70;;;7.10;72.00;;;;;;924621;151;27382;-75
2023/03/12 09:45:52;;;;;;;4.73;2.80;;;7.10;72.10;;;;;;922858;151;27458;-75
2023/03/12 09:48:19;;;;;;;2.07;1.97;;;7.10;72.40;;;;;;923260;151;27506;-75
2023/03/12 09:50:45;;;;;;;3.93;2.37;;;7.10;72.50;;;;;;920616;151;27859;-75
2023/03/12 09:53:21;;;;;;;2.50;2.03;;;7.10;72.80;;;;;;924579;151;27397;-75
2023/03/12 09:55:47;;;;;;;4.03;2.27;;;7.20;72.90;;;;;;922461;151;27356;-75
2023/03/12 09:58:26;;;;;;;3.73;2.47;;;7.20;73.00;;;;;;924284;151;27485;-75
2023/03/12 10:01:01;;;;;;;2.93;2.37;;;7.20;73.10;;;;;;921273;151;27391;-75
2023/03/12 10:03:28;;;;;;;5.23;2.23;;;7.30;73.20;;;;;;923405;151;27379;-75
2023/03/12 10:06:15;;;;;;;2.40;2.20;;;7.30;73.40;;;;;;923467;151;27288;-75
2023/03/12 10:09:03;;;;;;;3.63;2.23;;;7.40;73.60;;;;;;922474;151;27916;-75
2023/03/12 10:11:38;;;;;;;5.20;3.40;;;7.40;73.70;;;;;;922091;151;27478;-76
2023/03/12 10:14:14;;;;;;;4.17;2.63;;;7.40;73.70;;;;;;924542;151;27356;-75
2023/03/12 10:16:58;;;;;;;3.03;2.73;;;7.50;73.70;;;;;;922861;151;27981;-75
2023/03/12 10:19:25;;;;;;;3.50;3.20;;;7.50;73.80;;;;;;923429;151;27406;-75
2023/03/12 10:21:57;;;;;;;3.13;2.83;;;7.50;73.70;;;;;;923372;151;27419;-75
2023/03/12 10:24:36;;;;;;;3.73;2.93;;;7.50;73.90;;;;;;923823;151;27428;-75
2023/03/12 10:27:03;;;;;;;4.50;2.67;;;7.50;73.90;;;;;;921055;151;27447;-75
2023/03/12 10:29:29;;;;;;;2.50;2.30;;;7.50;74.00;;;;;;925696;151;27425;-75
2023/03/12 10:32:02;;;;;;;4.13;2.90;;;7.50;74.20;;;;;;922023;151;27390;-76
2023/03/12 10:34:36;;;;;;;4.87;2.60;;;7.60;74.30;;;;;;923651;151;27428;-75
2023/03/12 10:37:00;;;;;;;6.57;4.80;;;7.50;74.40;;;;;;924043;151;27403;-75
2023/03/12 10:39:27;;;;;;;4.03;3.37;;;7.60;74.50;;;;;;939094;148;27476;-75
2023/03/12 10:41:53;;;;;;;3.37;2.97;;;7.60;74.80;;;;;;925343;151;27481;-75
2023/03/12 10:44:20;;;;;;;3.77;3.00;;;7.60;74.90;;;;;;904297;154;27386;-75
2023/03/12 10:46:55;;;;;;;2.87;2.57;;;7.60;74.20;;;;;;911132;152;27559;-75
2023/03/12 10:49:22;;;;;;;4.60;2.93;;;7.70;75.20;;;;;;922345;151;27935;-75
2023/03/12 10:51:57;;;;;;;3.43;3.13;;;7.60;75.10;;;;;;926184;151;27360;-75
2023/03/12 10:54:27;;;;;;;4.23;2.80;;;7.70;75.40;;;;;;912585;153;27373;-75
2023/03/12 10:56:53;;;;;;;3.40;2.43;;;7.70;75.50;;;;;;908203;153;27443;-75
2023/03/12 10:59:20;;;;;;;4.30;2.90;;;7.70;75.50;;;;;;909723;153;27388;-75
2023/03/12 11:01:47;;;;;;;3.27;2.97;;;7.80;75.60;;;;;;910951;153;27383;-75
2023/03/12 11:04:19;;;;;;;3.57;3.13;;;7.80;75.80;;;;;;926242;151;27426;-75
2023/03/12 11:07:04;;;;;;;5.17;2.87;;;7.90;76.00;;;;;;928236;150;27388;-76
2023/03/12 11:09:30;;;;;;;4.40;2.97;;;7.90;75.80;;;;;;926479;151;27467;-75
2023/03/12 11:11:57;;;;;;;4.57;3.07;;;8.00;76.10;;;;;;910612;153;27871;-75
2023/03/12 11:14:26;;;;;;;5.13;3.10;;;8.00;76.30;;;;;;908320;153;27353;-75
2023/03/12 11:16:50;;;;;;;4.17;3.20;;;8.10;76.40;;;;;;923254;151;28184;-75
2023/03/12 11:19:29;;;;;;;3.03;2.53;;;8.20;76.70;;;;;;910666;153;27399;-75
2023/03/12 11:22:01;;;;;;;3.77;3.13;;;8.30;77.10;;;;;;918615;153;27384;-76
2023/03/12 11:24:28;;;;;;;5.47;3.43;;;8.40;77.10;;;;;;912173;153;27315;-76
2023/03/12 11:27:06;;;;;;;3.40;3.10;;;8.50;77.20;;;;;;926529;151;27368;-76
2023/03/12 11:29:38;;;;;;;3.77;3.33;;;8.70;77.20;;;;;;925267;151;27407;-76
2023/03/12 11:32:17;;;;;;;3.67;3.30;;;8.80;76.90;;;;;;924177;150;28156;-76
2023/03/12 11:34:48;;;;;;;4.73;3.80;;;8.90;76.90;;;;;;914726;153;27465;-76
2023/03/12 11:37:37;;;;;;;4.97;3.70;;;9.00;76.70;;;;;;910540;153;27342;-76
2023/03/12 11:40:16;;;;;;;3.63;3.10;;;9.00;76.80;;;;;;918159;153;27435;-76
2023/03/12 11:43:13;;;;;;;4.00;3.70;;;9.10;76.70;;;;;;910246;153;27413;-76
2023/03/12 11:45:57;;;;;;;4.23;3.33;;;9.20;76.80;;;;;;910576;153;27412;-75
2023/03/12 11:48:42;;;;;;;4.50;3.33;;;9.20;76.70;;;;;;920962;151;27383;-75
2023/03/12 11:51:39;;;;;;;4.03;3.27;;;9.30;76.80;;;;;;940149;148;27322;-78
2023/03/12 11:54:06;;;;;;;4.37;3.70;;;9.40;77.00;;;;;;925580;151;27371;-76
2023/03/12 11:56:39;;;;;;;6.40;3.60;;;9.50;77.10;;;;;;902238;155;27449;-76
2023/03/12 11:59:07;;;;;;;10.67;5.00;;;9.60;77.30;;;;;;903917;153;27742;-76
2023/03/12 12:01:40;;;;;;;8.13;4.67;;;9.70;77.50;;;;;;916436;152;27393;-76
2023/03/12 12:04:28;;;;;;;11.97;5.13;;;9.80;77.40;;;;;;917511;152;27378;-76
2023/03/12 12:06:54;;;;;;;8.40;4.73;;;9.90;77.20;;;;;;906398;154;27517;-76
2023/03/12 12:09:36;;;;;;;4.70;4.00;;;10.00;77.30;;;;;;919193;152;27432;-76
2023/03/12 12:12:21;;;;;;;4.87;4.37;;;10.10;77.80;;;;;;916567;152;27412;-76
2023/03/12 12:15:18;;;;;;;5.23;4.03;;;10.20;78.00;;;;;;903726;154;27397;-76
2023/03/12 12:17:51;;;;;;;9.13;5.20;;;10.30;78.20;;;;;;903316;155;27330;-76
2023/03/12 12:20:20;;;;;;;5.57;4.70;;;10.50;78.20;;;;;;918089;152;27429;-76
2023/03/12 12:22:56;;;;;;;6.63;5.27;;;10.60;78.50;;;;;;924276;151;27365;-76
2023/03/12 12:25:25;;;;;;;7.40;5.00;;;10.80;78.50;;;;;;919643;152;27361;-76
2023/03/12 12:28:25;;;;;;;5.67;4.90;;;10.90;78.00;;;;;;925664;151;27312;-76
2023/03/12 12:31:19;;;;;;;4.63;4.23;;;11.10;77.70;;;;;;923541;151;27415;-76
2023/03/12 12:33:46;;;;;;;4.40;4.00;;;11.20;77.50;;;;;;923977;151;27369;-76
2023/03/12 12:36:13;;;;;;;4.30;3.90;;;11.30;77.40;;;;;;923016;151;27501;-76
2023/03/12 12:38:40;;;;;;;5.10;4.60;;;11.30;77.20;;;;;;924585;151;27360;-76
2023/03/12 12:41:24;;;;;;;5.30;4.57;;;11.40;77.50;;;;;;923653;151;27320;-76
2023/03/12 12:43:50;;;;;;;5.40;4.90;;;11.40;77.50;;;;;;922283;151;27376;-76
2023/03/12 12:46:17;;;;;;;11.30;6.20;;;11.60;77.60;;;;;;923502;151;27499;-76
2023/03/12 12:48:46;;;;;;;9.27;6.00;;;11.70;77.70;;;;;;921376;151;27348;-76
2023/03/12 12:51:13;;;;;;;13.17;7.87;;;11.80;77.50;;;;;;922775;151;27468;-76
2023/03/12 12:53:45;;;;;;;6.10;5.50;;;11.90;77.40;;;;;;925394;151;27357;-76
2023/03/12 12:56:15;;;;;;;10.67;6.30;;;12.00;77.50;;;;;;924280;150;27389;-76
2023/03/12 12:59:02;;;;;;;18.67;8.93;;;12.10;77.50;;;;;;924218;151;27456;-76
2023/03/12 13:01:27;;;;;;;15.87;9.07;;;12.30;77.50;;;;;;924495;151;28007;-76